sensor_id;sensor_type;location;lat;lon;timestamp;temperature;humidity
25170;DHT22;13129;48.012;10.352;2023-08-07T03:30:11;9.40;99.90
25170;DHT22;13129;48.012;10.352;2023-08-07T03:32:36;9.40;99.90
25170;DHT22;13129;48.012;10.352;2023-08-07T03:35:02;9.40;99.90
25170;DHT22;13129;48.012;10.352;2023-08-07T03:37:28;9.30;99.90
25170;DHT22;13129;48.012;10.352;2023-08-07T03:39:53;9.30;99.90
25170;DHT22;13129;48.012;10.352;2023-08-07T03:42:19;9.30;99.90
25170;DHT22;13129;48.012;10.352;2023-08-07T03:44:45;9.20;99.90
25170;DHT22;13129;48.012;10.352;2023-08-07T03:47:10;9.20;99.90
25170;DHT22;13129;48.012;10.352;2023-08-07T03:49:36;9.30;99.90
25170;DHT22;13129;48.012;10.352;2023-08-07T03:52:02;9.30;99.90
25170;DHT22;13129;48.012;10.352;2023-08-07T03:54:27;9.30;99.90
25170;DHT22;13129;48.012;10.352;2023-08-07T03:56:53;9.40;99.90
25170;DHT22;13129;48.012;10.352;2023-08-07T03:59:18;9.40;99.90
25170;DHT22;13129;48.012;10.352;2023-08-07T04:01:44;9.50;99.90
25170;DHT22;13129;48.012;10.352;2023-08-07T04:04:09;9.50;99.90
25170;DHT22;13129;48.012;10.352;2023-08-07T04:06:35;9.60;99.90
25170;DHT22;13129;48.012;10.352;2023-08-07T04:09:00;9.50;99.90
25170;DHT22;13129;48.012;10.352;2023-08-07T04:11:28;9.60;99.90
25170;DHT22;13129;48.012;10.352;2023-08-07T04:13:55;9.50;99.90
25170;DHT22;13129;48.012;10.352;2023-08-07T04:16:20;9.40;99.90
25170;DHT22;13129;48.012;10.352;2023-08-07T04:18:46;9.30;99.90
25170;DHT22;13129;48.012;10.352;2023-08-07T04:21:11;9.30;99.90
25170;DHT22;13129;48.012;10.352;2023-08-07T04:23:37;9.30;99.90
25170;DHT22;13129;48.012;10.352;2023-08-07T04:26:03;9.30;99.90
25170;DHT22;13129;48.012;10.352;2023-08-07T04:28:29;9.40;99.90
25170;DHT22;13129;48.012;10.352;2023-08-07T04:30:55;9.30;99.90
25170;DHT22;13129;48.012;10.352;2023-08-07T04:33:20;9.30;99.90
25170;DHT22;13129;48.012;10.352;2023-08-07T04:35:46;9.40;99.90
25170;DHT22;13129;48.012;10.352;2023-08-07T04:38:13;9.40;99.90
25170;DHT22;13129;48.012;10.352;2023-08-07T04:40:47;9.40;99.90
25170;DHT22;13129;48.012;10.352;2023-08-07T04:43:16;9.40;99.90
25170;DHT22;13129;48.012;10.352;2023-08-07T04:45:42;9.40;99.90
25170;DHT22;13129;48.012;10.352;2023-08-07T04:48:10;9.40;99.90
25170;DHT22;13129;48.012;10.352;2023-08-07T04:50:36;9.40;99.90
25170;DHT22;13129;48.012;10.352;2023-08-07T04:53:02;9.40;99.90
25170;DHT22;13129;48.012;10.352;2023-08-07T04:55:28;9.50;99.90
25170;DHT22;13129;48.012;10.352;2023-08-07T04:57:53;9.60;99.90
25170;DHT22;13129;48.012;10.352;2023-08-07T05:00:22;9.70;99.90
25170;DHT22;13129;48.012;10.352;2023-08-07T05:02:48;9.80;99.90
25170;DHT22;13129;48.012;10.352;2023-08-07T05:05:14;9.90;99.90
25170;DHT22;13129;48.012;10.352;2023-08-07T05:07:41;10.10;99.90
25170;DHT22;13129;48.012;10.352;2023-08-07T05:10:07;10.20;99.90
25170;DHT22;13129;48.012;10.352;2023-08-07T05:12:33;10.40;99.90
25170;DHT22;13129;48.012;10.352;2023-08-07T05:14:58;10.60;99.90
25170;DHT22;13129;48.012;10.352;2023-08-07T05:17:24;11.00;99.90
25170;DHT22;13129;48.012;10.352;2023-08-07T05:19:49;11.40;99.90
25170;DHT22;13129;48.012;10.352;2023-08-07T05:22:15;12.50;99.90
25170;DHT22;13129;48.012;10.352;2023-08-07T05:24:41;14.00;99.90
25170;DHT22;13129;48.012;10.352;2023-08-07T05:27:08;15.20;99.90
25170;DHT22;13129;48.012;10.352;2023-08-07T05:29:35;16.10;99.90
25170;DHT22;13129;48.012;10.352;2023-08-07T05:32:17;16.20;99.90
25170;DHT22;13129;48.012;10.352;2023-08-07T05:34:43;16.30;99.90
25170;DHT22;13129;48.012;10.352;2023-08-07T05:37:09;16.50;99.90
25170;DHT22;13129;48.012;10.352;2023-08-07T05:39:35;16.20;99.90
25170;DHT22;13129;48.012;10.352;2023-08-07T05:42:00;16.80;99.90
25170;DHT22;13129;48.012;10.352;2023-08-07T05:44:27;18.10;99.90
25170;DHT22;13129;48.012;10.352;2023-08-07T05:46:52;19.30;99.90
25170;DHT22;13129;48.012;10.352;2023-08-07T05:49:19;20.50;99.90
25170;DHT22;13129;48.012;10.352;2023-08-07T05:51:45;21.30;99.90
25170;DHT22;13129;48.012;10.352;2023-08-07T05:54:10;21.90;96.50
25170;DHT22;13129;48.012;10.352;2023-08-07T05:56:37;22.10;94.10
25170;DHT22;13129;48.012;10.352;2023-08-07T05:59:03;22.10;92.50
25170;DHT22;13129;48.012;10.352;2023-08-07T06:01:28;22.30;91.40
25170;DHT22;13129;48.012;10.352;2023-08-07T06:03:59;22.40;89.90
25170;DHT22;13129;48.012;10.352;2023-08-07T06:06:26;23.00;89.50
25170;DHT22;13129;48.012;10.352;2023-08-07T06:08:54;23.40;85.50
25170;DHT22;13129;48.012;10.352;2023-08-07T06:11:19;23.80;83.30
25170;DHT22;13129;48.012;10.352;2023-08-07T06:13:45;24.30;82.40
25170;DHT22;13129;48.012;10.352;2023-08-07T06:16:10;24.20;77.70
25170;DHT22;13129;48.012;10.352;2023-08-07T06:18:36;24.20;77.30
25170;DHT22;13129;48.012;10.352;2023-08-07T06:21:02;23.90;76.90
25170;DHT22;13129;48.012;10.352;2023-08-07T06:23:30;22.80;77.10
25170;DHT22;13129;48.012;10.352;2023-08-07T06:25:55;21.10;80.00
25170;DHT22;13129;48.012;10.352;2023-08-07T06:28:22;19.70;85.30
25170;DHT22;13129;48.012;10.352;2023-08-07T06:30:48;18.40;89.30
25170;DHT22;13129;48.012;10.352;2023-08-07T06:33:13;17.50;91.40
25170;DHT22;13129;48.012;10.352;2023-08-07T06:35:39;16.50;92.80
25170;DHT22;13129;48.012;10.352;2023-08-07T06:38:05;15.80;94.10
25170;DHT22;13129;48.012;10.352;2023-08-07T06:40:31;15.30;95.60
25170;DHT22;13129;48.012;10.352;2023-08-07T06:42:57;15.20;96.70
25170;DHT22;13129;48.012;10.352;2023-08-07T06:45:22;14.80;97.10
25170;DHT22;13129;48.012;10.352;2023-08-07T06:47:48;14.50;98.70
25170;DHT22;13129;48.012;10.352;2023-08-07T06:50:14;14.10;99.40
25170;DHT22;13129;48.012;10.352;2023-08-07T06:52:39;13.80;99.90
25170;DHT22;13129;48.012;10.352;2023-08-07T06:55:05;13.70;99.90
25170;DHT22;13129;48.012;10.352;2023-08-07T06:57:31;13.60;99.90
25170;DHT22;13129;48.012;10.352;2023-08-07T06:59:57;13.60;99.90
25170;DHT22;13129;48.012;10.352;2023-08-07T07:02:22;13.50;99.90
25170;DHT22;13129;48.012;10.352;2023-08-07T07:04:48;13.60;99.90
25170;DHT22;13129;48.012;10.352;2023-08-07T07:07:13;13.70;99.90
25170;DHT22;13129;48.012;10.352;2023-08-07T07:09:39;13.90;99.90
25170;DHT22;13129;48.012;10.352;2023-08-07T07:12:05;13.90;99.90
25170;DHT22;13129;48.012;10.352;2023-08-07T07:14:32;14.10;99.90
25170;DHT22;13129;48.012;10.352;2023-08-07T07:16:58;14.50;99.90
25170;DHT22;13129;48.012;10.352;2023-08-07T07:19:24;14.80;99.90
25170;DHT22;13129;48.012;10.352;2023-08-07T07:21:50;15.70;99.90
25170;DHT22;13129;48.012;10.352;2023-08-07T07:24:15;17.20;99.90
25170;DHT22;13129;48.012;10.352;2023-08-07T07:26:41;17.90;99.90
25170;DHT22;13129;48.012;10.352;2023-08-07T07:29:06;19.50;99.90
25170;DHT22;13129;48.012;10.352;2023-08-07T07:31:32;20.30;97.00
25170;DHT22;13129;48.012;10.352;2023-08-07T07:33:58;20.20;94.20
25170;DHT22;13129;48.012;10.352;2023-08-07T07:36:23;19.60;94.10
25170;DHT22;13129;48.012;10.352;2023-08-07T07:38:49;18.90;94.60
25170;DHT22;13129;48.012;10.352;2023-08-07T07:41:15;18.50;95.30
25170;DHT22;13129;48.012;10.352;2023-08-07T07:43:41;18.10;96.00
25170;DHT22;13129;48.012;10.352;2023-08-07T07:46:07;17.80;96.60
25170;DHT22;13129;48.012;10.352;2023-08-07T07:48:33;17.30;97.00
25170;DHT22;13129;48.012;10.352;2023-08-07T07:50:59;16.80;97.80
25170;DHT22;13129;48.012;10.352;2023-08-07T07:53:25;16.20;98.40
25170;DHT22;13129;48.012;10.352;2023-08-07T07:55:51;15.80;99.60
25170;DHT22;13129;48.012;10.352;2023-08-07T07:58:17;15.80;99.90
25170;DHT22;13129;48.012;10.352;2023-08-07T08:00:42;15.70;99.90
25170;DHT22;13129;48.012;10.352;2023-08-07T08:03:08;15.30;99.90
25170;DHT22;13129;48.012;10.352;2023-08-07T08:05:34;14.90;99.90
25170;DHT22;13129;48.012;10.352;2023-08-07T08:08:00;14.60;99.90
25170;DHT22;13129;48.012;10.352;2023-08-07T08:10:26;14.20;99.90
25170;DHT22;13129;48.012;10.352;2023-08-07T08:12:54;13.90;99.90
25170;DHT22;13129;48.012;10.352;2023-08-07T08:15:19;13.70;99.90
25170;DHT22;13129;48.012;10.352;2023-08-07T08:17:46;14.00;99.90
25170;DHT22;13129;48.012;10.352;2023-08-07T08:20:12;14.80;99.90
25170;DHT22;13129;48.012;10.352;2023-08-07T08:22:41;15.80;99.90
25170;DHT22;13129;48.012;10.352;2023-08-07T08:25:06;17.30;99.90
25170;DHT22;13129;48.012;10.352;2023-08-07T08:27:32;18.40;99.90
25170;DHT22;13129;48.012;10.352;2023-08-07T08:29:58;18.60;98.40
25170;DHT22;13129;48.012;10.352;2023-08-07T08:32:23;18.20;97.70
25170;DHT22;13129;48.012;10.352;2023-08-07T08:34:49;17.80;98.10
25170;DHT22;13129;48.012;10.352;2023-08-07T08:37:15;17.20;98.70
25170;DHT22;13129;48.012;10.352;2023-08-07T08:39:41;16.50;99.70
25170;DHT22;13129;48.012;10.352;2023-08-07T08:42:10;15.80;99.90
25170;DHT22;13129;48.012;10.352;2023-08-07T08:44:36;15.50;99.90
25170;DHT22;13129;48.012;10.352;2023-08-07T08:47:04;15.50;99.90
25170;DHT22;13129;48.012;10.352;2023-08-07T08:49:35;15.90;99.90
25170;DHT22;13129;48.012;10.352;2023-08-07T08:52:02;16.80;99.90
25170;DHT22;13129;48.012;10.352;2023-08-07T08:54:28;19.40;99.90
25170;DHT22;13129;48.012;10.352;2023-08-07T08:56:56;21.30;99.90
25170;DHT22;13129;48.012;10.352;2023-08-07T08:59:22;22.80;95.90
25170;DHT22;13129;48.012;10.352;2023-08-07T09:01:51;24.80;93.20
25170;DHT22;13129;48.012;10.352;2023-08-07T09:04:18;26.60;88.60
25170;DHT22;13129;48.012;10.352;2023-08-07T09:06:44;28.10;82.60
25170;DHT22;13129;48.012;10.352;2023-08-07T09:09:11;28.50;75.10
25170;DHT22;13129;48.012;10.352;2023-08-07T09:11:38;27.20;72.10
25170;DHT22;13129;48.012;10.352;2023-08-07T09:14:04;26.30;74.80
25170;DHT22;13129;48.012;10.352;2023-08-07T09:16:30;26.60;74.10
25170;DHT22;13129;48.012;10.352;2023-08-07T09:18:56;26.40;71.70
25170;DHT22;13129;48.012;10.352;2023-08-07T09:21:21;25.70;72.00
25170;DHT22;13129;48.012;10.352;2023-08-07T09:23:47;24.50;72.80
25170;DHT22;13129;48.012;10.352;2023-08-07T09:26:13;23.40;75.60
25170;DHT22;13129;48.012;10.352;2023-08-07T09:28:38;21.90;78.40
25170;DHT22;13129;48.012;10.352;2023-08-07T09:31:07;20.40;82.00
25170;DHT22;13129;48.012;10.352;2023-08-07T09:33:34;19.10;86.40
25170;DHT22;13129;48.012;10.352;2023-08-07T09:36:03;18.50;89.70
25170;DHT22;13129;48.012;10.352;2023-08-07T09:38:30;17.70;90.10
25170;DHT22;13129;48.012;10.352;2023-08-07T09:40:59;17.80;91.90
25170;DHT22;13129;48.012;10.352;2023-08-07T09:43:24;18.20;91.30
25170;DHT22;13129;48.012;10.352;2023-08-07T09:45:50;18.00;91.60
25170;DHT22;13129;48.012;10.352;2023-08-07T09:48:23;17.40;92.50
25170;DHT22;13129;48.012;10.352;2023-08-07T09:50:53;17.00;93.40
25170;DHT22;13129;48.012;10.352;2023-08-07T09:53:25;16.70;94.20
25170;DHT22;13129;48.012;10.352;2023-08-07T09:55:55;16.90;95.80
25170;DHT22;13129;48.012;10.352;2023-08-07T09:58:20;19.20;95.80
25170;DHT22;13129;48.012;10.352;2023-08-07T10:00:47;21.90;92.60
25170;DHT22;13129;48.012;10.352;2023-08-07T10:03:14;24.20;87.00
25170;DHT22;13129;48.012;10.352;2023-08-07T10:05:41;26.20;80.80
25170;DHT22;13129;48.012;10.352;2023-08-07T10:08:07;27.80;76.90
25170;DHT22;13129;48.012;10.352;2023-08-07T10:10:33;29.20;72.50
25170;DHT22;13129;48.012;10.352;2023-08-07T10:13:02;30.40;67.20
25170;DHT22;13129;48.012;10.352;2023-08-07T10:15:29;31.10;63.80
25170;DHT22;13129;48.012;10.352;2023-08-07T10:17:56;31.50;61.10
25170;DHT22;13129;48.012;10.352;2023-08-07T10:20:23;31.30;60.90
25170;DHT22;13129;48.012;10.352;2023-08-07T10:22:50;30.90;60.50
25170;DHT22;13129;48.012;10.352;2023-08-07T10:25:21;30.80;59.40
25170;DHT22;13129;48.012;10.352;2023-08-07T10:27:49;31.00;59.60
25170;DHT22;13129;48.012;10.352;2023-08-07T10:30:18;30.70;59.00
25170;DHT22;13129;48.012;10.352;2023-08-07T10:32:45;30.40;59.70
25170;DHT22;13129;48.012;10.352;2023-08-07T10:35:23;30.00;58.30
25170;DHT22;13129;48.012;10.352;2023-08-07T10:37:51;29.10;59.20
25170;DHT22;13129;48.012;10.352;2023-08-07T10:40:18;28.10;59.20
25170;DHT22;13129;48.012;10.352;2023-08-07T10:45:18;24.20;66.70
25170;DHT22;13129;48.012;10.352;2023-08-07T10:48:06;23.80;71.60
25170;DHT22;13129;48.012;10.352;2023-08-07T10:50:46;23.40;72.70
25170;DHT22;13129;48.012;10.352;2023-08-07T10:53:19;23.00;71.80
25170;DHT22;13129;48.012;10.352;2023-08-07T10:55:46;22.40;73.10
25170;DHT22;13129;48.012;10.352;2023-08-07T10:58:26;22.30;76.10
25170;DHT22;13129;48.012;10.352;2023-08-07T11:01:19;22.40;76.90
25170;DHT22;13129;48.012;10.352;2023-08-07T11:03:49;22.00;76.90
25170;DHT22;13129;48.012;10.352;2023-08-07T11:06:17;21.90;77.70
25170;DHT22;13129;48.012;10.352;2023-08-07T11:08:43;21.90;77.30
25170;DHT22;13129;48.012;10.352;2023-08-07T11:11:08;22.00;78.30
25170;DHT22;13129;48.012;10.352;2023-08-07T11:13:34;21.90;79.30
25170;DHT22;13129;48.012;10.352;2023-08-07T11:16:01;21.90;78.20
25170;DHT22;13129;48.012;10.352;2023-08-07T11:18:27;21.90;77.40
25170;DHT22;13129;48.012;10.352;2023-08-07T11:20:54;21.70;77.60
25170;DHT22;13129;48.012;10.352;2023-08-07T11:23:25;21.20;78.80
25170;DHT22;13129;48.012;10.352;2023-08-07T11:25:51;21.20;80.10
25170;DHT22;13129;48.012;10.352;2023-08-07T11:28:18;21.40;81.30
25170;DHT22;13129;48.012;10.352;2023-08-07T11:30:46;21.10;80.50
25170;DHT22;13129;48.012;10.352;2023-08-07T11:33:13;20.90;81.70
25170;DHT22;13129;48.012;10.352;2023-08-07T11:35:43;21.20;80.30
25170;DHT22;13129;48.012;10.352;2023-08-07T11:38:08;20.70;79.40
25170;DHT22;13129;48.012;10.352;2023-08-07T11:40:34;20.10;79.90
25170;DHT22;13129;48.012;10.352;2023-08-07T11:43:01;20.10;82.30
25170;DHT22;13129;48.012;10.352;2023-08-07T11:45:26;19.90;83.20
25170;DHT22;13129;48.012;10.352;2023-08-07T11:47:52;19.70;82.80
25170;DHT22;13129;48.012;10.352;2023-08-07T11:50:21;19.10;83.70
25170;DHT22;13129;48.012;10.352;2023-08-07T11:52:47;18.60;82.90
25170;DHT22;13129;48.012;10.352;2023-08-07T11:55:14;18.20;82.30
25170;DHT22;13129;48.012;10.352;2023-08-07T11:57:39;18.00;84.40
25170;DHT22;13129;48.012;10.352;2023-08-07T12:00:08;18.00;86.60
25170;DHT22;13129;48.012;10.352;2023-08-07T12:02:42;18.10;88.60
25170;DHT22;13129;48.012;10.352;2023-08-07T12:05:11;18.20;89.20
25170;DHT22;13129;48.012;10.352;2023-08-07T12:07:39;18.20;90.00
25170;DHT22;13129;48.012;10.352;2023-08-07T12:10:09;18.40;89.20
25170;DHT22;13129;48.012;10.352;2023-08-07T12:12:36;19.00;90.00
25170;DHT22;13129;48.012;10.352;2023-08-07T12:15:06;19.10;87.40
25170;DHT22;13129;48.012;10.352;2023-08-07T12:17:32;19.20;86.40
25170;DHT22;13129;48.012;10.352;2023-08-07T12:19:58;19.70;86.50
25170;DHT22;13129;48.012;10.352;2023-08-07T12:22:27;20.10;84.90
25170;DHT22;13129;48.012;10.352;2023-08-07T12:24:53;19.90;81.30
25170;DHT22;13129;48.012;10.352;2023-08-07T12:27:19;19.70;80.10
25170;DHT22;13129;48.012;10.352;2023-08-07T12:29:45;19.50;78.90
25170;DHT22;13129;48.012;10.352;2023-08-07T12:32:11;19.30;79.50
25170;DHT22;13129;48.012;10.352;2023-08-07T12:34:36;19.60;80.00
25170;DHT22;13129;48.012;10.352;2023-08-07T12:37:04;19.60;79.10
25170;DHT22;13129;48.012;10.352;2023-08-07T12:39:29;19.50;79.00
25170;DHT22;13129;48.012;10.352;2023-08-07T12:41:55;19.20;77.90
25170;DHT22;13129;48.012;10.352;2023-08-07T12:44:21;19.00;79.10
25170;DHT22;13129;48.012;10.352;2023-08-07T12:46:46;18.70;79.20
25170;DHT22;13129;48.012;10.352;2023-08-07T12:49:12;18.20;79.00
25170;DHT22;13129;48.012;10.352;2023-08-07T12:51:38;17.90;80.70
25170;DHT22;13129;48.012;10.352;2023-08-07T12:54:03;17.80;81.00
25170;DHT22;13129;48.012;10.352;2023-08-07T12:56:29;18.10;80.80
25170;DHT22;13129;48.012;10.352;2023-08-07T12:58:55;18.30;79.50
25170;DHT22;13129;48.012;10.352;2023-08-07T13:01:20;18.20;80.10
25170;DHT22;13129;48.012;10.352;2023-08-07T13:03:46;18.30;80.00
25170;DHT22;13129;48.012;10.352;2023-08-07T13:06:11;18.50;80.20
25170;DHT22;13129;48.012;10.352;2023-08-07T13:08:37;18.50;79.20
25170;DHT22;13129;48.012;10.352;2023-08-07T13:11:03;18.20;78.80
25170;DHT22;13129;48.012;10.352;2023-08-07T13:13:29;18.00;79.20
25170;DHT22;13129;48.012;10.352;2023-08-07T13:15:56;18.10;80.00
25170;DHT22;13129;48.012;10.352;2023-08-07T13:18:22;18.20;80.10
25170;DHT22;13129;48.012;10.352;2023-08-07T13:20:47;18.40;77.40
25170;DHT22;13129;48.012;10.352;2023-08-07T13:23:14;18.60;78.80
25170;DHT22;13129;48.012;10.352;2023-08-07T13:25:40;19.10;79.30
25170;DHT22;13129;48.012;10.352;2023-08-07T13:28:06;19.30;77.60
25170;DHT22;13129;48.012;10.352;2023-08-07T13:30:33;19.40;76.30
25170;DHT22;13129;48.012;10.352;2023-08-07T13:32:58;19.20;76.10
25170;DHT22;13129;48.012;10.352;2023-08-07T13:35:24;19.10;76.00
25170;DHT22;13129;48.012;10.352;2023-08-07T13:37:49;18.90;76.00
25170;DHT22;13129;48.012;10.352;2023-08-07T13:40:15;18.60;75.90
25170;DHT22;13129;48.012;10.352;2023-08-07T13:42:41;18.40;76.00
25170;DHT22;13129;48.012;10.352;2023-08-07T13:45:07;18.20;77.70
25170;DHT22;13129;48.012;10.352;2023-08-07T13:47:33;17.90;77.90
25170;DHT22;13129;48.012;10.352;2023-08-07T13:49:58;17.60;78.20
25170;DHT22;13129;48.012;10.352;2023-08-07T13:52:24;17.30;79.00
25170;DHT22;13129;48.012;10.352;2023-08-07T13:54:50;17.00;80.00
25170;DHT22;13129;48.012;10.352;2023-08-07T13:57:16;16.80;81.20
25170;DHT22;13129;48.012;10.352;2023-08-07T13:59:42;16.50;81.90
25170;DHT22;13129;48.012;10.352;2023-08-07T14:02:07;16.20;82.90
25170;DHT22;13129;48.012;10.352;2023-08-07T14:04:34;16.00;83.90
25170;DHT22;13129;48.012;10.352;2023-08-07T14:06:59;15.80;84.80
25170;DHT22;13129;48.012;10.352;2023-08-07T14:09:25;15.60;87.00
25170;DHT22;13129;48.012;10.352;2023-08-07T14:11:51;15.40;89.50
25170;DHT22;13129;48.012;10.352;2023-08-07T14:14:17;15.40;90.60
25170;DHT22;13129;48.012;10.352;2023-08-07T14:16:42;15.60;90.90
25170;DHT22;13129;48.012;10.352;2023-08-07T14:19:08;15.80;90.30
25170;DHT22;13129;48.012;10.352;2023-08-07T14:21:34;16.00;90.00
25170;DHT22;13129;48.012;10.352;2023-08-07T14:23:59;16.30;89.30
25170;DHT22;13129;48.012;10.352;2023-08-07T14:26:25;16.70;89.20
25170;DHT22;13129;48.012;10.352;2023-08-07T14:28:51;17.10;88.80
25170;DHT22;13129;48.012;10.352;2023-08-07T14:31:17;17.50;87.30
25170;DHT22;13129;48.012;10.352;2023-08-07T14:33:42;17.70;85.50
25170;DHT22;13129;48.012;10.352;2023-08-07T14:36:08;17.70;85.00
25170;DHT22;13129;48.012;10.352;2023-08-07T14:38:33;17.70;85.20
25170;DHT22;13129;48.012;10.352;2023-08-07T14:40:59;17.80;84.80
25170;DHT22;13129;48.012;10.352;2023-08-07T14:43:27;17.70;83.50
25170;DHT22;13129;48.012;10.352;2023-08-07T14:45:54;17.50;81.90
25170;DHT22;13129;48.012;10.352;2023-08-07T14:48:20;17.40;82.10
25170;DHT22;13129;48.012;10.352;2023-08-07T14:50:45;17.40;82.00
25170;DHT22;13129;48.012;10.352;2023-08-07T14:53:11;17.40;83.10
25170;DHT22;13129;48.012;10.352;2023-08-07T14:55:37;17.40;82.90
25170;DHT22;13129;48.012;10.352;2023-08-07T14:58:02;17.40;83.50
25170;DHT22;13129;48.012;10.352;2023-08-07T15:00:28;17.20;82.80
25170;DHT22;13129;48.012;10.352;2023-08-07T15:02:53;17.20;85.40
25170;DHT22;13129;48.012;10.352;2023-08-07T15:05:19;17.10;89.40
25170;DHT22;13129;48.012;10.352;2023-08-07T15:07:45;17.20;90.80
25170;DHT22;13129;48.012;10.352;2023-08-07T15:10:10;17.00;91.30
25170;DHT22;13129;48.012;10.352;2023-08-07T15:12:36;16.80;91.80
25170;DHT22;13129;48.012;10.352;2023-08-07T15:15:02;16.50;92.50
25170;DHT22;13129;48.012;10.352;2023-08-07T15:17:27;16.10;93.30
25170;DHT22;13129;48.012;10.352;2023-08-07T15:19:53;16.00;92.80
25170;DHT22;13129;48.012;10.352;2023-08-07T15:22:18;15.70;92.80
25170;DHT22;13129;48.012;10.352;2023-08-07T15:24:44;15.60;92.70
25170;DHT22;13129;48.012;10.352;2023-08-07T15:27:10;15.60;92.80
25170;DHT22;13129;48.012;10.352;2023-08-07T15:29:35;15.80;92.80
25170;DHT22;13129;48.012;10.352;2023-08-07T15:32:01;15.90;92.40
25170;DHT22;13129;48.012;10.352;2023-08-07T15:34:26;16.00;92.30
25170;DHT22;13129;48.012;10.352;2023-08-07T15:36:52;16.10;92.20
25170;DHT22;13129;48.012;10.352;2023-08-07T15:39:17;16.20;92.20
25170;DHT22;13129;48.012;10.352;2023-08-07T15:41:43;16.20;92.10
25170;DHT22;13129;48.012;10.352;2023-08-07T15:44:08;16.40;92.10
25170;DHT22;13129;48.012;10.352;2023-08-07T15:53:00;16.60;91.40
25170;DHT22;13129;48.012;10.352;2023-08-07T15:55:49;16.60;91.60
25170;DHT22;13129;48.012;10.352;2023-08-07T16:13:00;16.60;91.70
25170;DHT22;13129;48.012;10.352;2023-08-07T16:15:47;16.80;91.80
25170;DHT22;13129;48.012;10.352;2023-08-07T16:28:51;16.50;93.10
25170;DHT22;13129;48.012;10.352;2023-08-07T16:32:13;16.30;93.70
25170;DHT22;13129;48.012;10.352;2023-08-07T16:34:23;16.10;94.30
25170;DHT22;13129;48.012;10.352;2023-08-07T16:39:53;15.60;95.20
25170;DHT22;13129;48.012;10.352;2023-08-07T16:53:22;15.00;97.90
25170;DHT22;13129;48.012;10.352;2023-08-07T17:51:43;13.70;99.90
25170;DHT22;13129;48.012;10.352;2023-08-07T18:25:19;13.20;99.90
25170;DHT22;13129;48.012;10.352;2023-08-07T18:28:26;13.10;99.90
25170;DHT22;13129;48.012;10.352;2023-08-07T18:34:42;13.00;99.90
25170;DHT22;13129;48.012;10.352;2023-08-07T18:37:17;12.90;99.90
25170;DHT22;13129;48.012;10.352;2023-08-07T18:40:06;12.90;99.90
25170;DHT22;13129;48.012;10.352;2023-08-07T18:42:32;12.80;99.90
25170;DHT22;13129;48.012;10.352;2023-08-07T18:45:13;12.70;99.90
25170;DHT22;13129;48.012;10.352;2023-08-07T18:47:42;12.50;99.90
25170;DHT22;13129;48.012;10.352;2023-08-07T18:50:10;12.40;99.90
25170;DHT22;13129;48.012;10.352;2023-08-07T18:52:36;12.40;99.90
25170;DHT22;13129;48.012;10.352;2023-08-07T18:55:01;12.30;99.90
25170;DHT22;13129;48.012;10.352;2023-08-07T18:57:27;12.20;99.90
25170;DHT22;13129;48.012;10.352;2023-08-07T18:59:53;12.10;99.90
25170;DHT22;13129;48.012;10.352;2023-08-07T19:02:18;12.10;99.90
25170;DHT22;13129;48.012;10.352;2023-08-07T19:04:44;12.00;99.90
25170;DHT22;13129;48.012;10.352;2023-08-07T19:07:10;11.90;99.90
25170;DHT22;13129;48.012;10.352;2023-08-07T19:09:35;11.90;99.90
25170;DHT22;13129;48.012;10.352;2023-08-07T19:12:10;11.80;99.90
25170;DHT22;13129;48.012;10.352;2023-08-07T19:14:39;11.70;99.90
25170;DHT22;13129;48.012;10.352;2023-08-07T19:17:48;11.60;99.90
25170;DHT22;13129;48.012;10.352;2023-08-07T19:21:41;11.60;99.90
25170;DHT22;13129;48.012;10.352;2023-08-07T19:27:46;11.50;99.90
25170;DHT22;13129;48.012;10.352;2023-08-07T19:36:19;11.50;99.90
25170;DHT22;13129;48.012;10.352;2023-08-07T19:39:15;11.50;99.90
25170;DHT22;13129;48.012;10.352;2023-08-07T19:41:58;11.50;99.90
25170;DHT22;13129;48.012;10.352;2023-08-07T19:48:20;11.60;99.90
25170;DHT22;13129;48.012;10.352;2023-08-07T19:51:04;11.50;99.90
25170;DHT22;13129;48.012;10.352;2023-08-07T19:53:48;11.50;99.90
25170;DHT22;13129;48.012;10.352;2023-08-07T19:56:20;11.50;99.90
25170;DHT22;13129;48.012;10.352;2023-08-07T20:05:25;11.40;99.90
25170;DHT22;13129;48.012;10.352;2023-08-07T20:08:15;11.40;99.90
25170;DHT22;13129;48.012;10.352;2023-08-07T20:11:37;11.40;99.90
25170;DHT22;13129;48.012;10.352;2023-08-07T20:14:06;11.40;99.90
25170;DHT22;13129;48.012;10.352;2023-08-07T20:16:50;11.30;99.90
25170;DHT22;13129;48.012;10.352;2023-08-07T20:19:16;11.30;99.90
25170;DHT22;13129;48.012;10.352;2023-08-07T20:21:56;11.30;99.90
25170;DHT22;13129;48.012;10.352;2023-08-07T20:24:25;11.20;99.90
25170;DHT22;13129;48.012;10.352;2023-08-07T20:26:55;11.20;99.90
25170;DHT22;13129;48.012;10.352;2023-08-07T20:29:21;11.20;99.90
25170;DHT22;13129;48.012;10.352;2023-08-07T20:31:47;11.20;99.90
25170;DHT22;13129;48.012;10.352;2023-08-07T20:34:13;11.20;99.90
25170;DHT22;13129;48.012;10.352;2023-08-07T20:36:39;11.20;99.90
25170;DHT22;13129;48.012;10.352;2023-08-07T20:39:04;11.20;99.90
25170;DHT22;13129;48.012;10.352;2023-08-07T20:41:30;11.10;99.90
25170;DHT22;13129;48.012;10.352;2023-08-07T20:43:56;11.10;99.90
25170;DHT22;13129;48.012;10.352;2023-08-07T20:46:22;11.10;99.90
25170;DHT22;13129;48.012;10.352;2023-08-07T20:48:47;11.10;99.90
25170;DHT22;13129;48.012;10.352;2023-08-07T20:51:16;11.10;99.90
25170;DHT22;13129;48.012;10.352;2023-08-07T20:53:43;11.10;99.90
25170;DHT22;13129;48.012;10.352;2023-08-07T20:56:08;11.00;99.90
25170;DHT22;13129;48.012;10.352;2023-08-07T20:58:35;11.20;99.90
25170;DHT22;13129;48.012;10.352;2023-08-07T21:01:01;11.00;99.90
25170;DHT22;13129;48.012;10.352;2023-08-07T21:03:27;11.00;99.90
25170;DHT22;13129;48.012;10.352;2023-08-07T21:05:53;11.00;99.90
25170;DHT22;13129;48.012;10.352;2023-08-07T21:08:19;11.00;99.90
25170;DHT22;13129;48.012;10.352;2023-08-07T21:10:45;11.00;99.90
25170;DHT22;13129;48.012;10.352;2023-08-07T21:13:13;11.00;99.90
25170;DHT22;13129;48.012;10.352;2023-08-07T21:15:39;10.90;99.90
25170;DHT22;13129;48.012;10.352;2023-08-07T21:18:04;10.90;99.90
25170;DHT22;13129;48.012;10.352;2023-08-07T21:20:30;10.90;99.90
25170;DHT22;13129;48.012;10.352;2023-08-07T21:22:56;10.80;99.90
25170;DHT22;13129;48.012;10.352;2023-08-07T21:25:21;10.90;99.90
25170;DHT22;13129;48.012;10.352;2023-08-07T21:27:47;10.90;99.90
25170;DHT22;13129;48.012;10.352;2023-08-07T21:30:13;10.90;99.90